sensor_id;sensor_type;location;lat;lon;timestamp;temperature;humidity
7445;DHT22;3764;48.126;11.594;2023-05-16T00:01:38;11.20;99.90
7445;DHT22;3764;48.126;11.594;2023-05-16T00:04:05;11.20;99.90
7445;DHT22;3764;48.126;11.594;2023-05-16T00:06:32;11.10;99.90
7445;DHT22;3764;48.126;11.594;2023-05-16T00:09:00;11.20;99.90
7445;DHT22;3764;48.126;11.594;2023-05-16T00:11:29;11.20;99.90
7445;DHT22;3764;48.126;11.594;2023-05-16T00:13:56;11.20;99.90
7445;DHT22;3764;48.126;11.594;2023-05-16T00:16:23;11.20;99.90
7445;DHT22;3764;48.126;11.594;2023-05-16T00:18:54;11.30;99.90
7445;DHT22;3764;48.126;11.594;2023-05-16T00:21:21;11.30;99.90
7445;DHT22;3764;48.126;11.594;2023-05-16T00:23:48;11.30;99.90
7445;DHT22;3764;48.126;11.594;2023-05-16T00:26:16;11.30;99.90
7445;DHT22;3764;48.126;11.594;2023-05-16T00:28:44;11.30;99.90
7445;DHT22;3764;48.126;11.594;2023-05-16T00:31:11;11.30;99.90
7445;DHT22;3764;48.126;11.594;2023-05-16T00:33:38;11.30;99.90
7445;DHT22;3764;48.126;11.594;2023-05-16T00:36:06;11.20;99.90
7445;DHT22;3764;48.126;11.594;2023-05-16T00:38:33;11.20;99.90
7445;DHT22;3764;48.126;11.594;2023-05-16T00:41:00;11.20;99.90
7445;DHT22;3764;48.126;11.594;2023-05-16T00:43:27;11.20;99.90
7445;DHT22;3764;48.126;11.594;2023-05-16T00:45:55;11.10;99.90
7445;DHT22;3764;48.126;11.594;2023-05-16T00:48:25;11.10;99.90
7445;DHT22;3764;48.126;11.594;2023-05-16T00:50:52;11.10;99.90
7445;DHT22;3764;48.126;11.594;2023-05-16T00:53:19;11.10;99.90
7445;DHT22;3764;48.126;11.594;2023-05-16T00:55:47;11.10;99.90
7445;DHT22;3764;48.126;11.594;2023-05-16T00:58:14;11.10;99.90
7445;DHT22;3764;48.126;11.594;2023-05-16T01:00:42;11.10;99.90
7445;DHT22;3764;48.126;11.594;2023-05-16T01:03:11;11.10;99.90
7445;DHT22;3764;48.126;11.594;2023-05-16T01:05:39;11.10;99.90
7445;DHT22;3764;48.126;11.594;2023-05-16T01:08:06;11.10;99.90
7445;DHT22;3764;48.126;11.594;2023-05-16T01:10:38;11.10;99.90
7445;DHT22;3764;48.126;11.594;2023-05-16T01:13:16;11.10;99.90
7445;DHT22;3764;48.126;11.594;2023-05-16T01:15:49;11.10;99.90
7445;DHT22;3764;48.126;11.594;2023-05-16T01:18:24;11.10;99.90
7445;DHT22;3764;48.126;11.594;2023-05-16T01:20:58;11.10;99.90
7445;DHT22;3764;48.126;11.594;2023-05-16T01:23:48;11.10;99.90
7445;DHT22;3764;48.126;11.594;2023-05-16T01:26:20;11.10;99.90
7445;DHT22;3764;48.126;11.594;2023-05-16T01:28:49;11.10;99.90
7445;DHT22;3764;48.126;11.594;2023-05-16T01:31:16;11.20;99.90
7445;DHT22;3764;48.126;11.594;2023-05-16T01:33:44;11.20;99.90
7445;DHT22;3764;48.126;11.594;2023-05-16T01:36:19;11.20;99.90
7445;DHT22;3764;48.126;11.594;2023-05-16T01:39:00;11.20;99.90
7445;DHT22;3764;48.126;11.594;2023-05-16T01:41:38;11.20;99.90
7445;DHT22;3764;48.126;11.594;2023-05-16T01:44:20;11.20;99.90
7445;DHT22;3764;48.126;11.594;2023-05-16T01:46:53;11.20;99.90
7445;DHT22;3764;48.126;11.594;2023-05-16T01:49:25;11.20;99.90
7445;DHT22;3764;48.126;11.594;2023-05-16T01:51:59;11.30;99.90
7445;DHT22;3764;48.126;11.594;2023-05-16T01:54:30;11.30;99.90
7445;DHT22;3764;48.126;11.594;2023-05-16T01:56:59;11.30;99.90
7445;DHT22;3764;48.126;11.594;2023-05-16T01:59:30;11.30;99.90
7445;DHT22;3764;48.126;11.594;2023-05-16T02:01:57;11.30;99.90
7445;DHT22;3764;48.126;11.594;2023-05-16T02:04:25;11.30;99.90
7445;DHT22;3764;48.126;11.594;2023-05-16T02:06:52;11.20;99.90
7445;DHT22;3764;48.126;11.594;2023-05-16T02:09:19;11.20;99.90
7445;DHT22;3764;48.126;11.594;2023-05-16T02:11:46;11.20;99.90
7445;DHT22;3764;48.126;11.594;2023-05-16T02:14:15;11.20;99.90
7445;DHT22;3764;48.126;11.594;2023-05-16T02:16:42;11.20;99.90
7445;DHT22;3764;48.126;11.594;2023-05-16T02:19:09;11.10;99.90
7445;DHT22;3764;48.126;11.594;2023-05-16T02:21:36;11.20;99.90
7445;DHT22;3764;48.126;11.594;2023-05-16T02:24:03;11.10;99.90
7445;DHT22;3764;48.126;11.594;2023-05-16T02:26:31;11.10;99.90
7445;DHT22;3764;48.126;11.594;2023-05-16T02:28:58;11.10;99.90
7445;DHT22;3764;48.126;11.594;2023-05-16T02:31:27;11.10;99.90
7445;DHT22;3764;48.126;11.594;2023-05-16T02:33:55;11.10;99.90
7445;DHT22;3764;48.126;11.594;2023-05-16T02:36:23;11.00;99.90
7445;DHT22;3764;48.126;11.594;2023-05-16T02:38:50;11.00;99.90
7445;DHT22;3764;48.126;11.594;2023-05-16T02:41:17;11.00;99.90
7445;DHT22;3764;48.126;11.594;2023-05-16T02:43:47;11.00;99.90
7445;DHT22;3764;48.126;11.594;2023-05-16T02:46:24;11.10;99.90
7445;DHT22;3764;48.126;11.594;2023-05-16T02:48:54;11.10;99.90
7445;DHT22;3764;48.126;11.594;2023-05-16T02:51:22;11.10;99.90
7445;DHT22;3764;48.126;11.594;2023-05-16T02:53:50;11.00;99.90
7445;DHT22;3764;48.126;11.594;2023-05-16T02:56:18;11.00;99.90
7445;DHT22;3764;48.126;11.594;2023-05-16T02:58:47;11.00;99.90
7445;DHT22;3764;48.126;11.594;2023-05-16T03:01:14;11.00;99.90
7445;DHT22;3764;48.126;11.594;2023-05-16T03:03:42;11.00;99.90
7445;DHT22;3764;48.126;11.594;2023-05-16T03:06:10;11.00;99.90
7445;DHT22;3764;48.126;11.594;2023-05-16T03:08:38;11.00;99.90
7445;DHT22;3764;48.126;11.594;2023-05-16T03:11:05;11.00;99.90
7445;DHT22;3764;48.126;11.594;2023-05-16T03:13:32;11.00;99.90
7445;DHT22;3764;48.126;11.594;2023-05-16T03:15:59;11.00;99.90
7445;DHT22;3764;48.126;11.594;2023-05-16T03:18:26;11.00;99.90
7445;DHT22;3764;48.126;11.594;2023-05-16T03:20:53;11.10;99.90
7445;DHT22;3764;48.126;11.594;2023-05-16T03:23:23;11.10;99.90
7445;DHT22;3764;48.126;11.594;2023-05-16T03:25:50;11.10;99.90
7445;DHT22;3764;48.126;11.594;2023-05-16T03:28:17;11.10;99.90
7445;DHT22;3764;48.126;11.594;2023-05-16T03:30:44;11.10;99.90
7445;DHT22;3764;48.126;11.594;2023-05-16T03:33:11;11.10;99.90
7445;DHT22;3764;48.126;11.594;2023-05-16T03:35:39;11.10;99.90
7445;DHT22;3764;48.126;11.594;2023-05-16T03:38:06;11.00;99.90
7445;DHT22;3764;48.126;11.594;2023-05-16T03:40:34;11.10;99.90
7445;DHT22;3764;48.126;11.594;2023-05-16T03:43:02;11.10;99.90
7445;DHT22;3764;48.126;11.594;2023-05-16T03:45:29;11.10;99.90
7445;DHT22;3764;48.126;11.594;2023-05-16T03:47:56;11.10;99.90
7445;DHT22;3764;48.126;11.594;2023-05-16T03:50:23;11.10;99.90
7445;DHT22;3764;48.126;11.594;2023-05-16T03:52:51;11.10;99.90
7445;DHT22;3764;48.126;11.594;2023-05-16T03:55:19;11.10;99.90
7445;DHT22;3764;48.126;11.594;2023-05-16T03:57:47;11.10;99.90
7445;DHT22;3764;48.126;11.594;2023-05-16T04:00:17;11.10;99.90
7445;DHT22;3764;48.126;11.594;2023-05-16T04:02:44;11.10;99.90
7445;DHT22;3764;48.126;11.594;2023-05-16T04:05:11;11.10;99.90
7445;DHT22;3764;48.126;11.594;2023-05-16T04:07:38;11.10;99.90
7445;DHT22;3764;48.126;11.594;2023-05-16T04:10:06;11.10;99.90
7445;DHT22;3764;48.126;11.594;2023-05-16T04:12:33;11.10;99.90
7445;DHT22;3764;48.126;11.594;2023-05-16T04:15:02;11.10;99.90
7445;DHT22;3764;48.126;11.594;2023-05-16T04:17:30;11.00;99.90
7445;DHT22;3764;48.126;11.594;2023-05-16T04:19:57;10.90;99.90
7445;DHT22;3764;48.126;11.594;2023-05-16T04:22:24;10.90;99.90
7445;DHT22;3764;48.126;11.594;2023-05-16T04:24:52;10.90;99.90
7445;DHT22;3764;48.126;11.594;2023-05-16T04:27:19;10.80;99.90
7445;DHT22;3764;48.126;11.594;2023-05-16T04:29:46;10.70;99.90
7445;DHT22;3764;48.126;11.594;2023-05-16T04:32:14;10.70;99.90
7445;DHT22;3764;48.126;11.594;2023-05-16T04:34:42;10.70;99.90
7445;DHT22;3764;48.126;11.594;2023-05-16T04:37:11;10.80;99.90
7445;DHT22;3764;48.126;11.594;2023-05-16T04:39:38;10.80;99.90
7445;DHT22;3764;48.126;11.594;2023-05-16T04:42:05;10.90;99.90
7445;DHT22;3764;48.126;11.594;2023-05-16T04:44:33;10.90;99.90
7445;DHT22;3764;48.126;11.594;2023-05-16T04:47:00;10.90;99.90
7445;DHT22;3764;48.126;11.594;2023-05-16T04:49:28;10.90;99.90
7445;DHT22;3764;48.126;11.594;2023-05-16T04:51:55;10.90;99.90
7445;DHT22;3764;48.126;11.594;2023-05-16T04:54:22;11.00;99.90
7445;DHT22;3764;48.126;11.594;2023-05-16T04:56:51;10.90;99.90
7445;DHT22;3764;48.126;11.594;2023-05-16T04:59:18;10.90;99.90
7445;DHT22;3764;48.126;11.594;2023-05-16T05:01:45;11.00;99.90
7445;DHT22;3764;48.126;11.594;2023-05-16T05:04:13;10.90;99.90
7445;DHT22;3764;48.126;11.594;2023-05-16T05:06:41;11.00;99.90
7445;DHT22;3764;48.126;11.594;2023-05-16T05:09:08;11.00;99.90
7445;DHT22;3764;48.126;11.594;2023-05-16T05:11:35;11.00;99.90
7445;DHT22;3764;48.126;11.594;2023-05-16T05:14:03;11.00;99.90
7445;DHT22;3764;48.126;11.594;2023-05-16T05:16:30;11.00;99.90
7445;DHT22;3764;48.126;11.594;2023-05-16T05:18:57;11.00;99.90
7445;DHT22;3764;48.126;11.594;2023-05-16T05:21:24;11.00;99.90
7445;DHT22;3764;48.126;11.594;2023-05-16T05:23:53;11.10;99.90
7445;DHT22;3764;48.126;11.594;2023-05-16T05:26:20;11.10;99.90
7445;DHT22;3764;48.126;11.594;2023-05-16T05:28:48;11.10;99.90
7445;DHT22;3764;48.126;11.594;2023-05-16T05:31:15;11.10;99.90
7445;DHT22;3764;48.126;11.594;2023-05-16T05:33:42;11.10;99.90
7445;DHT22;3764;48.126;11.594;2023-05-16T05:36:09;11.10;99.90
7445;DHT22;3764;48.126;11.594;2023-05-16T05:38:37;11.10;99.90
7445;DHT22;3764;48.126;11.594;2023-05-16T05:41:05;11.10;99.90
7445;DHT22;3764;48.126;11.594;2023-05-16T05:43:32;11.10;99.90
7445;DHT22;3764;48.126;11.594;2023-05-16T05:46:00;11.10;99.90
7445;DHT22;3764;48.126;11.594;2023-05-16T05:48:27;11.10;99.90
7445;DHT22;3764;48.126;11.594;2023-05-16T05:50:54;11.10;99.90
7445;DHT22;3764;48.126;11.594;2023-05-16T05:53:22;11.10;99.90
7445;DHT22;3764;48.126;11.594;2023-05-16T05:55:49;11.00;99.90
7445;DHT22;3764;48.126;11.594;2023-05-16T05:58:17;11.00;99.90
7445;DHT22;3764;48.126;11.594;2023-05-16T06:00:44;11.00;99.90
7445;DHT22;3764;48.126;11.594;2023-05-16T06:03:11;11.00;99.90
7445;DHT22;3764;48.126;11.594;2023-05-16T06:05:39;11.10;99.90
7445;DHT22;3764;48.126;11.594;2023-05-16T06:08:06;11.10;99.90
7445;DHT22;3764;48.126;11.594;2023-05-16T06:10:33;11.10;99.90
7445;DHT22;3764;48.126;11.594;2023-05-16T06:13:00;11.10;99.90
7445;DHT22;3764;48.126;11.594;2023-05-16T06:15:28;11.10;99.90
7445;DHT22;3764;48.126;11.594;2023-05-16T06:17:55;11.10;99.90
7445;DHT22;3764;48.126;11.594;2023-05-16T06:20:23;11.20;99.90
7445;DHT22;3764;48.126;11.594;2023-05-16T06:22:50;11.10;99.90
7445;DHT22;3764;48.126;11.594;2023-05-16T06:25:17;11.20;99.90
7445;DHT22;3764;48.126;11.594;2023-05-16T06:27:44;11.20;99.90
7445;DHT22;3764;48.126;11.594;2023-05-16T06:30:11;11.20;99.90
7445;DHT22;3764;48.126;11.594;2023-05-16T06:32:40;11.20;99.90
7445;DHT22;3764;48.126;11.594;2023-05-16T06:35:08;11.20;99.90
7445;DHT22;3764;48.126;11.594;2023-05-16T06:37:35;11.20;99.90
7445;DHT22;3764;48.126;11.594;2023-05-16T06:40:02;11.20;99.90
7445;DHT22;3764;48.126;11.594;2023-05-16T06:42:30;11.20;99.90
7445;DHT22;3764;48.126;11.594;2023-05-16T06:44:57;11.20;99.90
7445;DHT22;3764;48.126;11.594;2023-05-16T06:47:24;11.30;99.90
7445;DHT22;3764;48.126;11.594;2023-05-16T06:49:52;11.20;99.90
7445;DHT22;3764;48.126;11.594;2023-05-16T06:52:20;11.30;99.90
7445;DHT22;3764;48.126;11.594;2023-05-16T06:54:47;11.30;99.90
7445;DHT22;3764;48.126;11.594;2023-05-16T06:57:14;11.30;99.90
7445;DHT22;3764;48.126;11.594;2023-05-16T06:59:42;11.30;99.90
7445;DHT22;3764;48.126;11.594;2023-05-16T07:02:09;11.30;99.90
7445;DHT22;3764;48.126;11.594;2023-05-16T07:04:36;11.30;99.90
7445;DHT22;3764;48.126;11.594;2023-05-16T07:07:04;11.30;99.90
7445;DHT22;3764;48.126;11.594;2023-05-16T07:09:32;11.30;99.90
7445;DHT22;3764;48.126;11.594;2023-05-16T07:12:00;11.30;99.90
7445;DHT22;3764;48.126;11.594;2023-05-16T07:14:27;11.40;99.90
7445;DHT22;3764;48.126;11.594;2023-05-16T07:16:54;11.40;99.90
7445;DHT22;3764;48.126;11.594;2023-05-16T07:19:21;11.40;99.90
7445;DHT22;3764;48.126;11.594;2023-05-16T07:21:48;11.40;99.90
7445;DHT22;3764;48.126;11.594;2023-05-16T07:24:16;11.40;99.90
7445;DHT22;3764;48.126;11.594;2023-05-16T07:26:43;11.40;99.90
7445;DHT22;3764;48.126;11.594;2023-05-16T07:29:10;11.40;99.90
7445;DHT22;3764;48.126;11.594;2023-05-16T07:31:37;11.40;99.90
7445;DHT22;3764;48.126;11.594;2023-05-16T07:34:04;11.40;99.90
7445;DHT22;3764;48.126;11.594;2023-05-16T07:36:32;11.40;99.90
7445;DHT22;3764;48.126;11.594;2023-05-16T07:39:00;11.40;99.90
7445;DHT22;3764;48.126;11.594;2023-05-16T07:41:28;11.50;99.90
7445;DHT22;3764;48.126;11.594;2023-05-16T07:43:56;11.40;99.90
7445;DHT22;3764;48.126;11.594;2023-05-16T07:46:23;11.50;99.90
7445;DHT22;3764;48.126;11.594;2023-05-16T07:48:50;11.40;99.90
7445;DHT22;3764;48.126;11.594;2023-05-16T07:51:17;11.40;99.90
7445;DHT22;3764;48.126;11.594;2023-05-16T07:53:44;11.40;99.90
7445;DHT22;3764;48.126;11.594;2023-05-16T07:56:11;11.50;99.90
7445;DHT22;3764;48.126;11.594;2023-05-16T07:58:40;11.40;99.90
7445;DHT22;3764;48.126;11.594;2023-05-16T08:01:07;11.40;99.90
7445;DHT22;3764;48.126;11.594;2023-05-16T08:03:34;11.40;99.90
7445;DHT22;3764;48.126;11.594;2023-05-16T08:06:02;11.40;99.90
7445;DHT22;3764;48.126;11.594;2023-05-16T08:08:29;11.40;99.90
7445;DHT22;3764;48.126;11.594;2023-05-16T08:10:56;11.40;99.90
7445;DHT22;3764;48.126;11.594;2023-05-16T08:13:23;11.40;99.90
7445;DHT22;3764;48.126;11.594;2023-05-16T08:15:51;11.40;99.90
7445;DHT22;3764;48.126;11.594;2023-05-16T08:18:18;11.40;99.90
7445;DHT22;3764;48.126;11.594;2023-05-16T08:20:45;11.40;99.90
7445;DHT22;3764;48.126;11.594;2023-05-16T08:23:13;11.40;99.90
7445;DHT22;3764;48.126;11.594;2023-05-16T08:25:40;11.50;99.90
7445;DHT22;3764;48.126;11.594;2023-05-16T08:28:07;11.50;99.90
7445;DHT22;3764;48.126;11.594;2023-05-16T08:30:34;11.50;99.90
7445;DHT22;3764;48.126;11.594;2023-05-16T08:33:04;11.50;99.90
7445;DHT22;3764;48.126;11.594;2023-05-16T08:35:31;11.50;99.90
7445;DHT22;3764;48.126;11.594;2023-05-16T08:38:00;11.50;99.90
7445;DHT22;3764;48.126;11.594;2023-05-16T08:40:28;11.50;99.90
7445;DHT22;3764;48.126;11.594;2023-05-16T08:42:56;11.50;99.90
7445;DHT22;3764;48.126;11.594;2023-05-16T08:45:23;11.50;99.90
7445;DHT22;3764;48.126;11.594;2023-05-16T08:47:54;11.50;99.90
7445;DHT22;3764;48.126;11.594;2023-05-16T08:50:23;11.60;99.90
7445;DHT22;3764;48.126;11.594;2023-05-16T08:52:51;11.60;99.90
7445;DHT22;3764;48.126;11.594;2023-05-16T08:55:19;11.60;99.90
7445;DHT22;3764;48.126;11.594;2023-05-16T08:57:48;11.60;99.90
7445;DHT22;3764;48.126;11.594;2023-05-16T09:00:17;11.60;99.90
7445;DHT22;3764;48.126;11.594;2023-05-16T09:02:45;11.60;99.90
7445;DHT22;3764;48.126;11.594;2023-05-16T09:05:14;11.60;99.90
7445;DHT22;3764;48.126;11.594;2023-05-16T09:07:43;11.70;99.90
7445;DHT22;3764;48.126;11.594;2023-05-16T09:10:11;11.70;99.90
7445;DHT22;3764;48.126;11.594;2023-05-16T09:12:39;11.70;99.90
7445;DHT22;3764;48.126;11.594;2023-05-16T09:15:08;11.70;99.90
7445;DHT22;3764;48.126;11.594;2023-05-16T09:17:36;11.70;99.90
7445;DHT22;3764;48.126;11.594;2023-05-16T09:20:11;11.70;99.90
7445;DHT22;3764;48.126;11.594;2023-05-16T09:22:39;11.70;99.90
7445;DHT22;3764;48.126;11.594;2023-05-16T09:25:09;11.70;99.90
7445;DHT22;3764;48.126;11.594;2023-05-16T09:27:42;11.80;99.90
7445;DHT22;3764;48.126;11.594;2023-05-16T09:30:10;11.80;99.90
7445;DHT22;3764;48.126;11.594;2023-05-16T09:32:42;11.90;99.90
7445;DHT22;3764;48.126;11.594;2023-05-16T09:35:14;11.90;99.90
7445;DHT22;3764;48.126;11.594;2023-05-16T09:37:44;12.00;99.90
7445;DHT22;3764;48.126;11.594;2023-05-16T09:40:13;12.00;99.90
7445;DHT22;3764;48.126;11.594;2023-05-16T09:42:41;12.10;99.90
7445;DHT22;3764;48.126;11.594;2023-05-16T09:45:11;12.10;99.90
7445;DHT22;3764;48.126;11.594;2023-05-16T09:47:39;12.10;99.90
7445;DHT22;3764;48.126;11.594;2023-05-16T09:50:13;12.10;99.90
7445;DHT22;3764;48.126;11.594;2023-05-16T09:52:41;12.10;99.90
7445;DHT22;3764;48.126;11.594;2023-05-16T09:55:09;12.20;99.90
7445;DHT22;3764;48.126;11.594;2023-05-16T09:57:38;12.20;99.90
7445;DHT22;3764;48.126;11.594;2023-05-16T10:00:08;12.20;99.90
7445;DHT22;3764;48.126;11.594;2023-05-16T10:02:37;12.20;99.90
7445;DHT22;3764;48.126;11.594;2023-05-16T10:05:05;12.20;99.90
7445;DHT22;3764;48.126;11.594;2023-05-16T10:07:33;12.20;99.90
7445;DHT22;3764;48.126;11.594;2023-05-16T10:10:04;12.30;99.90
7445;DHT22;3764;48.126;11.594;2023-05-16T10:12:32;12.30;99.90
7445;DHT22;3764;48.126;11.594;2023-05-16T10:15:02;12.30;99.90
7445;DHT22;3764;48.126;11.594;2023-05-16T10:17:31;12.30;99.90
7445;DHT22;3764;48.126;11.594;2023-05-16T10:20:01;12.30;99.90
7445;DHT22;3764;48.126;11.594;2023-05-16T10:22:32;12.30;99.90
7445;DHT22;3764;48.126;11.594;2023-05-16T10:25:07;12.30;99.90
7445;DHT22;3764;48.126;11.594;2023-05-16T10:27:35;12.30;99.90
7445;DHT22;3764;48.126;11.594;2023-05-16T10:30:04;12.30;99.90
7445;DHT22;3764;48.126;11.594;2023-05-16T10:32:33;12.30;99.90
7445;DHT22;3764;48.126;11.594;2023-05-16T10:35:01;12.30;99.90
7445;DHT22;3764;48.126;11.594;2023-05-16T10:37:29;12.30;99.90
7445;DHT22;3764;48.126;11.594;2023-05-16T10:39:58;12.30;99.90
7445;DHT22;3764;48.126;11.594;2023-05-16T10:42:26;12.30;99.90
7445;DHT22;3764;48.126;11.594;2023-05-16T10:44:53;12.30;99.90
7445;DHT22;3764;48.126;11.594;2023-05-16T10:47:23;12.20;99.90
7445;DHT22;3764;48.126;11.594;2023-05-16T10:49:50;12.20;99.90
7445;DHT22;3764;48.126;11.594;2023-05-16T10:52:17;12.20;99.90
7445;DHT22;3764;48.126;11.594;2023-05-16T10:54:50;12.20;99.90
7445;DHT22;3764;48.126;11.594;2023-05-16T10:57:19;12.20;99.90
7445;DHT22;3764;48.126;11.594;2023-05-16T10:59:49;12.20;99.90
7445;DHT22;3764;48.126;11.594;2023-05-16T11:02:26;12.20;99.90
7445;DHT22;3764;48.126;11.594;2023-05-16T11:04:55;12.10;99.90
7445;DHT22;3764;48.126;11.594;2023-05-16T11:07:25;12.10;99.90
7445;DHT22;3764;48.126;11.594;2023-05-16T11:10:02;12.10;99.90
7445;DHT22;3764;48.126;11.594;2023-05-16T11:12:43;12.10;99.90
7445;DHT22;3764;48.126;11.594;2023-05-16T11:15:23;12.10;99.90
7445;DHT22;3764;48.126;11.594;2023-05-16T11:18:03;12.10;99.90
7445;DHT22;3764;48.126;11.594;2023-05-16T11:20:32;12.10;99.90
7445;DHT22;3764;48.126;11.594;2023-05-16T11:23:23;12.10;99.90
7445;DHT22;3764;48.126;11.594;2023-05-16T11:25:53;12.10;99.90
7445;DHT22;3764;48.126;11.594;2023-05-16T11:28:22;12.10;99.90
7445;DHT22;3764;48.126;11.594;2023-05-16T11:30:50;12.10;99.90
7445;DHT22;3764;48.126;11.594;2023-05-16T11:33:23;12.10;99.90
7445;DHT22;3764;48.126;11.594;2023-05-16T11:36:04;12.10;99.90
7445;DHT22;3764;48.126;11.594;2023-05-16T11:38:33;12.10;99.90
7445;DHT22;3764;48.126;11.594;2023-05-16T11:41:05;12.10;99.90
7445;DHT22;3764;48.126;11.594;2023-05-16T11:43:40;12.10;99.90
7445;DHT22;3764;48.126;11.594;2023-05-16T11:46:10;12.10;99.90
7445;DHT22;3764;48.126;11.594;2023-05-16T11:48:39;12.10;99.90
7445;DHT22;3764;48.126;11.594;2023-05-16T11:51:06;12.10;99.90
7445;DHT22;3764;48.126;11.594;2023-05-16T11:53:35;12.10;99.90
7445;DHT22;3764;48.126;11.594;2023-05-16T11:56:02;12.10;99.90
7445;DHT22;3764;48.126;11.594;2023-05-16T11:58:30;12.10;99.90
7445;DHT22;3764;48.126;11.594;2023-05-16T12:00:57;12.10;99.90
7445;DHT22;3764;48.126;11.594;2023-05-16T12:03:24;12.10;99.90
7445;DHT22;3764;48.126;11.594;2023-05-16T12:05:54;12.10;99.90
7445;DHT22;3764;48.126;11.594;2023-05-16T12:08:22;12.10;99.90
7445;DHT22;3764;48.126;11.594;2023-05-16T12:10:50;12.10;99.90
7445;DHT22;3764;48.126;11.594;2023-05-16T12:13:19;12.10;99.90
7445;DHT22;3764;48.126;11.594;2023-05-16T12:15:47;12.10;99.90
7445;DHT22;3764;48.126;11.594;2023-05-16T12:18:15;12.20;99.90
7445;DHT22;3764;48.126;11.594;2023-05-16T12:20:43;12.20;99.90
7445;DHT22;3764;48.126;11.594;2023-05-16T12:23:12;12.20;99.90
7445;DHT22;3764;48.126;11.594;2023-05-16T12:25:44;12.20;99.90
7445;DHT22;3764;48.126;11.594;2023-05-16T12:28:13;12.20;99.90
7445;DHT22;3764;48.126;11.594;2023-05-16T12:30:41;12.20;99.90
7445;DHT22;3764;48.126;11.594;2023-05-16T12:33:10;12.20;99.90
7445;DHT22;3764;48.126;11.594;2023-05-16T12:35:39;12.30;99.90
7445;DHT22;3764;48.126;11.594;2023-05-16T12:38:07;12.30;99.90
7445;DHT22;3764;48.126;11.594;2023-05-16T12:40:37;12.30;99.90
7445;DHT22;3764;48.126;11.594;2023-05-16T12:43:12;12.30;99.90
7445;DHT22;3764;48.126;11.594;2023-05-16T12:45:39;12.40;99.90
7445;DHT22;3764;48.126;11.594;2023-05-16T12:48:11;12.40;99.90
7445;DHT22;3764;48.126;11.594;2023-05-16T12:50:39;12.40;99.90
7445;DHT22;3764;48.126;11.594;2023-05-16T12:53:11;12.40;99.90
7445;DHT22;3764;48.126;11.594;2023-05-16T12:55:40;12.50;99.90
7445;DHT22;3764;48.126;11.594;2023-05-16T12:58:07;12.50;99.90
7445;DHT22;3764;48.126;11.594;2023-05-16T13:00:35;12.50;99.90
7445;DHT22;3764;48.126;11.594;2023-05-16T13:03:04;12.50;99.90
7445;DHT22;3764;48.126;11.594;2023-05-16T13:05:32;12.60;99.90
7445;DHT22;3764;48.126;11.594;2023-05-16T13:07:59;12.60;99.90
7445;DHT22;3764;48.126;11.594;2023-05-16T13:10:27;12.60;99.90
7445;DHT22;3764;48.126;11.594;2023-05-16T13:12:55;12.60;99.90
7445;DHT22;3764;48.126;11.594;2023-05-16T13:15:24;12.70;99.90
7445;DHT22;3764;48.126;11.594;2023-05-16T13:17:51;12.60;99.90
7445;DHT22;3764;48.126;11.594;2023-05-16T13:20:18;12.70;99.90
7445;DHT22;3764;48.126;11.594;2023-05-16T13:22:45;12.70;99.90
7445;DHT22;3764;48.126;11.594;2023-05-16T13:25:13;12.70;99.90
7445;DHT22;3764;48.126;11.594;2023-05-16T13:27:40;12.70;99.90
7445;DHT22;3764;48.126;11.594;2023-05-16T13:30:09;12.70;99.90
7445;DHT22;3764;48.126;11.594;2023-05-16T13:32:37;12.70;99.90
7445;DHT22;3764;48.126;11.594;2023-05-16T13:35:04;12.70;99.90
7445;DHT22;3764;48.126;11.594;2023-05-16T13:37:31;12.70;99.90
7445;DHT22;3764;48.126;11.594;2023-05-16T13:39:59;12.70;99.90
7445;DHT22;3764;48.126;11.594;2023-05-16T13:42:26;12.80;99.90
7445;DHT22;3764;48.126;11.594;2023-05-16T13:44:53;12.80;99.90
7445;DHT22;3764;48.126;11.594;2023-05-16T13:47:21;12.80;99.90
7445;DHT22;3764;48.126;11.594;2023-05-16T13:49:48;12.70;99.90
7445;DHT22;3764;48.126;11.594;2023-05-16T13:52:15;12.70;99.90
7445;DHT22;3764;48.126;11.594;2023-05-16T13:54:43;12.60;99.90
7445;DHT22;3764;48.126;11.594;2023-05-16T13:57:10;12.50;99.90
7445;DHT22;3764;48.126;11.594;2023-05-16T13:59:37;12.50;99.90
7445;DHT22;3764;48.126;11.594;2023-05-16T14:02:04;12.40;99.90
7445;DHT22;3764;48.126;11.594;2023-05-16T14:04:32;12.30;99.90
7445;DHT22;3764;48.126;11.594;2023-05-16T14:06:59;12.30;99.90
7445;DHT22;3764;48.126;11.594;2023-05-16T14:09:26;12.20;99.90
7445;DHT22;3764;48.126;11.594;2023-05-16T14:11:53;12.20;99.90
7445;DHT22;3764;48.126;11.594;2023-05-16T14:14:20;12.10;99.90
7445;DHT22;3764;48.126;11.594;2023-05-16T14:16:47;12.10;99.90
7445;DHT22;3764;48.126;11.594;2023-05-16T14:19:14;12.00;99.90
7445;DHT22;3764;48.126;11.594;2023-05-16T14:21:43;12.00;99.90
7445;DHT22;3764;48.126;11.594;2023-05-16T14:24:10;12.00;99.90
7445;DHT22;3764;48.126;11.594;2023-05-16T14:26:37;12.00;99.90
7445;DHT22;3764;48.126;11.594;2023-05-16T14:29:04;12.00;99.90
7445;DHT22;3764;48.126;11.594;2023-05-16T14:31:32;11.90;99.90
7445;DHT22;3764;48.126;11.594;2023-05-16T14:34:00;11.90;99.90
7445;DHT22;3764;48.126;11.594;2023-05-16T14:36:28;11.90;99.90
7445;DHT22;3764;48.126;11.594;2023-05-16T14:38:57;11.90;99.90
7445;DHT22;3764;48.126;11.594;2023-05-16T14:41:25;11.80;99.90
7445;DHT22;3764;48.126;11.594;2023-05-16T14:43:52;11.80;99.90
7445;DHT22;3764;48.126;11.594;2023-05-16T14:46:19;11.80;99.90
7445;DHT22;3764;48.126;11.594;2023-05-16T14:48:46;11.80;99.90
7445;DHT22;3764;48.126;11.594;2023-05-16T14:51:13;11.70;99.90
7445;DHT22;3764;48.126;11.594;2023-05-16T14:53:41;11.80;99.90
7445;DHT22;3764;48.126;11.594;2023-05-16T14:56:09;11.70;99.90
7445;DHT22;3764;48.126;11.594;2023-05-16T14:58:36;11.70;99.90
7445;DHT22;3764;48.126;11.594;2023-05-16T15:01:03;11.70;99.90
7445;DHT22;3764;48.126;11.594;2023-05-16T15:03:37;11.70;99.90
7445;DHT22;3764;48.126;11.594;2023-05-16T15:06:05;11.70;99.90
7445;DHT22;3764;48.126;11.594;2023-05-16T15:08:32;11.70;99.90
7445;DHT22;3764;48.126;11.594;2023-05-16T15:11:00;11.70;99.90
7445;DHT22;3764;48.126;11.594;2023-05-16T15:13:28;11.70;99.90
7445;DHT22;3764;48.126;11.594;2023-05-16T15:15:56;11.70;99.90
7445;DHT22;3764;48.126;11.594;2023-05-16T15:18:23;11.70;99.90
7445;DHT22;3764;48.126;11.594;2023-05-16T15:20:50;11.70;99.90
7445;DHT22;3764;48.126;11.594;2023-05-16T15:23:17;11.70;99.90
7445;DHT22;3764;48.126;11.594;2023-05-16T15:25:45;11.70;99.90
7445;DHT22;3764;48.126;11.594;2023-05-16T15:28:13;11.70;99.90
7445;DHT22;3764;48.126;11.594;2023-05-16T15:30:41;11.70;99.90
7445;DHT22;3764;48.126;11.594;2023-05-16T15:33:08;11.70;99.90
7445;DHT22;3764;48.126;11.594;2023-05-16T15:35:35;11.70;99.90
7445;DHT22;3764;48.126;11.594;2023-05-16T15:38:02;11.60;99.90
7445;DHT22;3764;48.126;11.594;2023-05-16T15:40:29;11.70;99.90
7445;DHT22;3764;48.126;11.594;2023-05-16T15:42:56;11.70;99.90
7445;DHT22;3764;48.126;11.594;2023-05-16T15:45:24;11.70;99.90
7445;DHT22;3764;48.126;11.594;2023-05-16T15:47:52;11.70;99.90
7445;DHT22;3764;48.126;11.594;2023-05-16T15:50:19;11.60;99.90
7445;DHT22;3764;48.126;11.594;2023-05-16T15:52:46;11.60;99.90